sensor_id;sensor_type;location;lat;lon;timestamp;temperature;humidity
13198;DHT22;6664;52.514;13.440;2023-06-19T00:00:15;16.50;33.90
13198;DHT22;6664;52.514;13.440;2023-06-19T00:03:05;16.60;34.40
13198;DHT22;6664;52.514;13.440;2023-06-19T00:05:50;16.60;34.20
13198;DHT22;6664;52.514;13.440;2023-06-19T00:08:36;16.70;34.60
13198;DHT22;6664;52.514;13.440;2023-06-19T00:11:22;16.80;34.40
13198;DHT22;6664;52.514;13.440;2023-06-19T00:14:08;16.80;34.10
13198;DHT22;6664;52.514;13.440;2023-06-19T00:16:53;16.80;34.30
13198;DHT22;6664;52.514;13.440;2023-06-19T00:19:39;16.80;34.60
13198;DHT22;6664;52.514;13.440;2023-06-19T00:22:28;16.80;34.40
13198;DHT22;6664;52.514;13.440;2023-06-19T00:25:17;16.80;34.30
13198;DHT22;6664;52.514;13.440;2023-06-19T00:28:05;16.90;34.30
13198;DHT22;6664;52.514;13.440;2023-06-19T00:30:58;16.90;34.00
13198;DHT22;6664;52.514;13.440;2023-06-19T00:33:46;17.10;34.00
13198;DHT22;6664;52.514;13.440;2023-06-19T00:36:35;17.20;33.70
13198;DHT22;6664;52.514;13.440;2023-06-19T00:39:26;17.20;33.20
13198;DHT22;6664;52.514;13.440;2023-06-19T00:42:12;17.30;32.60
13198;DHT22;6664;52.514;13.440;2023-06-19T00:44:58;17.40;32.10
13198;DHT22;6664;52.514;13.440;2023-06-19T00:47:44;17.50;31.70
13198;DHT22;6664;52.514;13.440;2023-06-19T00:50:31;17.60;31.30
13198;DHT22;6664;52.514;13.440;2023-06-19T00:53:19;17.60;31.10
13198;DHT22;6664;52.514;13.440;2023-06-19T00:56:05;17.70;30.80
13198;DHT22;6664;52.514;13.440;2023-06-19T00:58:52;17.70;30.40
13198;DHT22;6664;52.514;13.440;2023-06-19T01:01:39;17.80;30.20
13198;DHT22;6664;52.514;13.440;2023-06-19T01:04:28;17.80;30.00
13198;DHT22;6664;52.514;13.440;2023-06-19T01:07:15;17.80;29.80
13198;DHT22;6664;52.514;13.440;2023-06-19T01:10:05;17.70;29.70
13198;DHT22;6664;52.514;13.440;2023-06-19T01:13:08;17.60;29.70
13198;DHT22;6664;52.514;13.440;2023-06-19T01:15:56;17.50;29.90
13198;DHT22;6664;52.514;13.440;2023-06-19T01:18:45;17.50;30.40
13198;DHT22;6664;52.514;13.440;2023-06-19T01:21:31;17.40;30.40
13198;DHT22;6664;52.514;13.440;2023-06-19T01:24:19;17.20;30.60
13198;DHT22;6664;52.514;13.440;2023-06-19T01:27:05;17.20;31.40
13198;DHT22;6664;52.514;13.440;2023-06-19T01:29:52;17.10;31.40
13198;DHT22;6664;52.514;13.440;2023-06-19T01:35:35;17.00;32.10
13198;DHT22;6664;52.514;13.440;2023-06-19T01:38:24;17.00;32.10
13198;DHT22;6664;52.514;13.440;2023-06-19T01:41:11;17.10;32.40
13198;DHT22;6664;52.514;13.440;2023-06-19T01:43:57;17.10;32.30
13198;DHT22;6664;52.514;13.440;2023-06-19T01:46:47;17.10;32.00
13198;DHT22;6664;52.514;13.440;2023-06-19T01:49:33;17.20;32.00
13198;DHT22;6664;52.514;13.440;2023-06-19T01:52:19;17.20;31.70
13198;DHT22;6664;52.514;13.440;2023-06-19T01:55:05;17.20;31.70
13198;DHT22;6664;52.514;13.440;2023-06-19T01:57:51;17.30;31.60
13198;DHT22;6664;52.514;13.440;2023-06-19T02:00:36;17.30;31.60
13198;DHT22;6664;52.514;13.440;2023-06-19T02:03:22;17.40;31.60
13198;DHT22;6664;52.514;13.440;2023-06-19T02:06:08;17.40;31.50
13198;DHT22;6664;52.514;13.440;2023-06-19T02:08:54;17.40;31.00
13198;DHT22;6664;52.514;13.440;2023-06-19T02:11:40;17.50;30.60
13198;DHT22;6664;52.514;13.440;2023-06-19T02:14:26;17.50;30.50
13198;DHT22;6664;52.514;13.440;2023-06-19T02:17:12;17.50;30.70
13198;DHT22;6664;52.514;13.440;2023-06-19T02:19:57;17.50;30.40
13198;DHT22;6664;52.514;13.440;2023-06-19T02:22:43;17.50;30.00
13198;DHT22;6664;52.514;13.440;2023-06-19T02:25:29;17.50;29.80
13198;DHT22;6664;52.514;13.440;2023-06-19T02:28:14;17.50;29.60
13198;DHT22;6664;52.514;13.440;2023-06-19T02:31:03;17.40;29.60
13198;DHT22;6664;52.514;13.440;2023-06-19T02:33:51;17.40;29.70
13198;DHT22;6664;52.514;13.440;2023-06-19T02:36:36;17.50;29.60
13198;DHT22;6664;52.514;13.440;2023-06-19T02:39:23;17.50;29.40
13198;DHT22;6664;52.514;13.440;2023-06-19T02:42:09;17.60;29.20
13198;DHT22;6664;52.514;13.440;2023-06-19T02:44:54;17.60;29.10
13198;DHT22;6664;52.514;13.440;2023-06-19T02:47:40;17.60;29.10
13198;DHT22;6664;52.514;13.440;2023-06-19T02:50:28;17.60;29.10
13198;DHT22;6664;52.514;13.440;2023-06-19T02:53:14;17.60;29.20
13198;DHT22;6664;52.514;13.440;2023-06-19T02:56:01;17.60;29.30
13198;DHT22;6664;52.514;13.440;2023-06-19T02:58:48;17.50;29.20
13198;DHT22;6664;52.514;13.440;2023-06-19T03:01:37;17.40;29.20
13198;DHT22;6664;52.514;13.440;2023-06-19T03:04:23;17.40;29.50
13198;DHT22;6664;52.514;13.440;2023-06-19T03:07:16;17.30;29.50
13198;DHT22;6664;52.514;13.440;2023-06-19T03:10:03;17.30;29.60
13198;DHT22;6664;52.514;13.440;2023-06-19T03:12:51;17.30;29.90
13198;DHT22;6664;52.514;13.440;2023-06-19T03:15:36;17.30;30.00
13198;DHT22;6664;52.514;13.440;2023-06-19T03:18:22;17.20;30.00
13198;DHT22;6664;52.514;13.440;2023-06-19T03:21:08;17.30;29.90
13198;DHT22;6664;52.514;13.440;2023-06-19T03:23:54;17.30;29.60
13198;DHT22;6664;52.514;13.440;2023-06-19T03:26:41;17.40;29.20
13198;DHT22;6664;52.514;13.440;2023-06-19T03:29:27;17.60;28.90
13198;DHT22;6664;52.514;13.440;2023-06-19T03:32:15;17.70;28.60
13198;DHT22;6664;52.514;13.440;2023-06-19T03:35:01;17.90;28.20
13198;DHT22;6664;52.514;13.440;2023-06-19T03:37:53;18.00;27.40
13198;DHT22;6664;52.514;13.440;2023-06-19T03:40:38;18.10;27.30
13198;DHT22;6664;52.514;13.440;2023-06-19T03:43:26;18.20;26.70
13198;DHT22;6664;52.514;13.440;2023-06-19T03:46:13;18.30;26.40
13198;DHT22;6664;52.514;13.440;2023-06-19T03:48:58;18.40;26.20
13198;DHT22;6664;52.514;13.440;2023-06-19T03:51:44;18.40;26.00
13198;DHT22;6664;52.514;13.440;2023-06-19T03:54:30;18.50;25.80
13198;DHT22;6664;52.514;13.440;2023-06-19T03:57:15;18.50;25.90
13198;DHT22;6664;52.514;13.440;2023-06-19T04:00:03;18.60;25.30
13198;DHT22;6664;52.514;13.440;2023-06-19T04:02:53;18.70;24.90
13198;DHT22;6664;52.514;13.440;2023-06-19T04:05:39;18.70;24.90
13198;DHT22;6664;52.514;13.440;2023-06-19T04:08:28;18.80;24.70
13198;DHT22;6664;52.514;13.440;2023-06-19T04:11:14;18.80;24.10
13198;DHT22;6664;52.514;13.440;2023-06-19T04:14:00;18.90;23.60
13198;DHT22;6664;52.514;13.440;2023-06-19T04:16:45;18.90;23.50
13198;DHT22;6664;52.514;13.440;2023-06-19T04:19:31;19.00;23.60
13198;DHT22;6664;52.514;13.440;2023-06-19T04:22:19;19.00;23.30
13198;DHT22;6664;52.514;13.440;2023-06-19T04:25:07;19.10;23.10
13198;DHT22;6664;52.514;13.440;2023-06-19T04:27:54;19.20;23.00
13198;DHT22;6664;52.514;13.440;2023-06-19T04:30:39;19.20;23.00
13198;DHT22;6664;52.514;13.440;2023-06-19T04:33:31;19.20;22.40
13198;DHT22;6664;52.514;13.440;2023-06-19T04:36:20;19.20;22.00
13198;DHT22;6664;52.514;13.440;2023-06-19T04:39:08;19.30;21.80
13198;DHT22;6664;52.514;13.440;2023-06-19T04:41:54;19.30;21.50
13198;DHT22;6664;52.514;13.440;2023-06-19T04:44:40;19.30;21.50
13198;DHT22;6664;52.514;13.440;2023-06-19T04:47:26;19.30;21.40
13198;DHT22;6664;52.514;13.440;2023-06-19T04:50:24;19.30;21.50
13198;DHT22;6664;52.514;13.440;2023-06-19T04:53:12;19.30;21.60
13198;DHT22;6664;52.514;13.440;2023-06-19T04:55:58;19.50;21.80
13198;DHT22;6664;52.514;13.440;2023-06-19T04:58:46;19.50;21.60
13198;DHT22;6664;52.514;13.440;2023-06-19T05:01:33;19.50;21.70
13198;DHT22;6664;52.514;13.440;2023-06-19T05:04:20;19.50;22.10
13198;DHT22;6664;52.514;13.440;2023-06-19T05:07:06;19.50;21.50
13198;DHT22;6664;52.514;13.440;2023-06-19T05:09:52;19.50;22.00
13198;DHT22;6664;52.514;13.440;2023-06-19T05:12:37;19.50;22.00
13198;DHT22;6664;52.514;13.440;2023-06-19T05:15:23;19.50;21.80
13198;DHT22;6664;52.514;13.440;2023-06-19T05:18:09;19.50;21.90
13198;DHT22;6664;52.514;13.440;2023-06-19T05:20:54;19.50;21.60
13198;DHT22;6664;52.514;13.440;2023-06-19T05:23:40;19.50;21.60
13198;DHT22;6664;52.514;13.440;2023-06-19T05:26:26;19.60;21.40
13198;DHT22;6664;52.514;13.440;2023-06-19T05:29:12;19.60;21.40
13198;DHT22;6664;52.514;13.440;2023-06-19T05:32:01;19.70;21.20
13198;DHT22;6664;52.514;13.440;2023-06-19T05:34:47;19.80;21.20
13198;DHT22;6664;52.514;13.440;2023-06-19T05:37:33;19.90;20.80
13198;DHT22;6664;52.514;13.440;2023-06-19T05:40:21;20.10;20.70
13198;DHT22;6664;52.514;13.440;2023-06-19T05:43:07;20.20;20.50
13198;DHT22;6664;52.514;13.440;2023-06-19T05:45:55;20.10;20.00
13198;DHT22;6664;52.514;13.440;2023-06-19T05:48:41;20.10;20.00
13198;DHT22;6664;52.514;13.440;2023-06-19T05:51:29;20.20;20.00
13198;DHT22;6664;52.514;13.440;2023-06-19T05:54:15;20.30;19.80
13198;DHT22;6664;52.514;13.440;2023-06-19T05:57:03;20.50;19.70
13198;DHT22;6664;52.514;13.440;2023-06-19T05:59:49;20.60;19.20
13198;DHT22;6664;52.514;13.440;2023-06-19T06:02:35;20.70;18.90
13198;DHT22;6664;52.514;13.440;2023-06-19T06:05:21;20.80;18.40
13198;DHT22;6664;52.514;13.440;2023-06-19T06:08:07;20.90;18.20
13198;DHT22;6664;52.514;13.440;2023-06-19T06:10:55;21.00;18.00
13198;DHT22;6664;52.514;13.440;2023-06-19T06:13:41;21.10;17.90
13198;DHT22;6664;52.514;13.440;2023-06-19T06:16:27;21.10;17.50
13198;DHT22;6664;52.514;13.440;2023-06-19T06:19:13;21.20;17.30
13198;DHT22;6664;52.514;13.440;2023-06-19T06:21:59;21.10;17.10
13198;DHT22;6664;52.514;13.440;2023-06-19T06:24:46;21.20;16.90
13198;DHT22;6664;52.514;13.440;2023-06-19T06:27:32;21.20;16.60
13198;DHT22;6664;52.514;13.440;2023-06-19T06:30:17;21.20;16.50
13198;DHT22;6664;52.514;13.440;2023-06-19T06:33:04;21.20;16.30
13198;DHT22;6664;52.514;13.440;2023-06-19T06:35:50;21.30;16.30
13198;DHT22;6664;52.514;13.440;2023-06-19T06:38:38;21.30;16.20
13198;DHT22;6664;52.514;13.440;2023-06-19T06:41:24;21.50;16.90
13198;DHT22;6664;52.514;13.440;2023-06-19T06:44:09;21.40;16.30
13198;DHT22;6664;52.514;13.440;2023-06-19T06:46:58;21.50;16.30
13198;DHT22;6664;52.514;13.440;2023-06-19T06:49:44;21.70;15.70
13198;DHT22;6664;52.514;13.440;2023-06-19T06:52:30;21.80;15.40
13198;DHT22;6664;52.514;13.440;2023-06-19T06:55:16;22.00;15.00
13198;DHT22;6664;52.514;13.440;2023-06-19T06:58:01;22.20;14.50
13198;DHT22;6664;52.514;13.440;2023-06-19T07:00:47;22.50;13.90
13198;DHT22;6664;52.514;13.440;2023-06-19T07:03:33;22.60;14.50
13198;DHT22;6664;52.514;13.440;2023-06-19T07:06:20;22.70;13.30
13198;DHT22;6664;52.514;13.440;2023-06-19T07:09:06;22.80;12.80
13198;DHT22;6664;52.514;13.440;2023-06-19T07:11:51;22.90;12.70
13198;DHT22;6664;52.514;13.440;2023-06-19T07:14:38;23.00;12.40
13198;DHT22;6664;52.514;13.440;2023-06-19T07:17:24;23.10;12.00
13198;DHT22;6664;52.514;13.440;2023-06-19T07:20:10;23.30;11.90
13198;DHT22;6664;52.514;13.440;2023-06-19T07:22:56;23.30;11.60
13198;DHT22;6664;52.514;13.440;2023-06-19T07:25:43;23.30;11.40
13198;DHT22;6664;52.514;13.440;2023-06-19T07:28:30;23.40;11.30
13198;DHT22;6664;52.514;13.440;2023-06-19T07:31:15;23.60;10.80
13198;DHT22;6664;52.514;13.440;2023-06-19T07:34:01;23.70;10.30
13198;DHT22;6664;52.514;13.440;2023-06-19T07:36:47;24.00;9.90
13198;DHT22;6664;52.514;13.440;2023-06-19T07:39:33;24.20;9.00
13198;DHT22;6664;52.514;13.440;2023-06-19T07:42:19;24.10;8.90
13198;DHT22;6664;52.514;13.440;2023-06-19T07:45:05;24.30;8.90
13198;DHT22;6664;52.514;13.440;2023-06-19T07:47:57;24.60;8.80
13198;DHT22;6664;52.514;13.440;2023-06-19T07:50:43;24.90;7.80
13198;DHT22;6664;52.514;13.440;2023-06-19T07:53:29;25.10;7.30
13198;DHT22;6664;52.514;13.440;2023-06-19T07:56:15;25.20;6.80
13198;DHT22;6664;52.514;13.440;2023-06-19T07:59:00;25.40;6.60
13198;DHT22;6664;52.514;13.440;2023-06-19T08:01:52;25.50;6.20
13198;DHT22;6664;52.514;13.440;2023-06-19T08:04:38;25.40;6.30
13198;DHT22;6664;52.514;13.440;2023-06-19T08:07:23;25.40;7.30
13198;DHT22;6664;52.514;13.440;2023-06-19T08:10:09;25.50;6.80
13198;DHT22;6664;52.514;13.440;2023-06-19T08:12:59;25.50;5.80
13198;DHT22;6664;52.514;13.440;2023-06-19T08:15:45;25.60;5.70
13198;DHT22;6664;52.514;13.440;2023-06-19T08:18:31;25.60;7.30
13198;DHT22;6664;52.514;13.440;2023-06-19T08:21:19;25.60;6.40
13198;DHT22;6664;52.514;13.440;2023-06-19T08:24:08;25.80;4.90
13198;DHT22;6664;52.514;13.440;2023-06-19T08:26:56;26.00;4.10
13198;DHT22;6664;52.514;13.440;2023-06-19T08:29:42;25.90;3.70
13198;DHT22;6664;52.514;13.440;2023-06-19T08:32:28;26.00;3.60
13198;DHT22;6664;52.514;13.440;2023-06-19T08:35:15;26.00;3.50
13198;DHT22;6664;52.514;13.440;2023-06-19T08:38:00;25.90;4.20
13198;DHT22;6664;52.514;13.440;2023-06-19T08:40:46;25.80;4.40
13198;DHT22;6664;52.514;13.440;2023-06-19T08:43:31;25.70;4.90
13198;DHT22;6664;52.514;13.440;2023-06-19T08:46:18;25.60;4.80
13198;DHT22;6664;52.514;13.440;2023-06-19T08:49:07;25.70;5.20
13198;DHT22;6664;52.514;13.440;2023-06-19T08:51:59;25.60;5.10
13198;DHT22;6664;52.514;13.440;2023-06-19T08:54:46;25.70;4.90
13198;DHT22;6664;52.514;13.440;2023-06-19T08:57:38;25.70;4.40
13198;DHT22;6664;52.514;13.440;2023-06-19T09:00:28;25.90;4.00
13198;DHT22;6664;52.514;13.440;2023-06-19T09:03:19;26.00;3.80
13198;DHT22;6664;52.514;13.440;2023-06-19T09:06:09;26.10;3.70
13198;DHT22;6664;52.514;13.440;2023-06-19T09:08:59;26.10;3.30
13198;DHT22;6664;52.514;13.440;2023-06-19T09:14:45;26.20;3.60
13198;DHT22;6664;52.514;13.440;2023-06-19T09:17:33;26.20;4.00
13198;DHT22;6664;52.514;13.440;2023-06-19T09:20:31;26.40;4.40
13198;DHT22;6664;52.514;13.440;2023-06-19T09:23:17;26.60;3.80
13198;DHT22;6664;52.514;13.440;2023-06-19T09:26:03;26.60;3.50
13198;DHT22;6664;52.514;13.440;2023-06-19T09:28:52;26.60;3.20
13198;DHT22;6664;52.514;13.440;2023-06-19T09:31:38;26.60;3.00
13198;DHT22;6664;52.514;13.440;2023-06-19T09:34:26;26.50;3.30
13198;DHT22;6664;52.514;13.440;2023-06-19T09:37:12;26.50;3.60
13198;DHT22;6664;52.514;13.440;2023-06-19T09:40:03;26.30;3.90
13198;DHT22;6664;52.514;13.440;2023-06-19T09:42:56;26.30;3.70
13198;DHT22;6664;52.514;13.440;2023-06-19T09:45:50;26.30;3.80
13198;DHT22;6664;52.514;13.440;2023-06-19T09:48:42;26.60;4.00
13198;DHT22;6664;52.514;13.440;2023-06-19T09:51:35;26.90;3.80
13198;DHT22;6664;52.514;13.440;2023-06-19T09:54:24;26.90;2.90
13198;DHT22;6664;52.514;13.440;2023-06-19T09:57:11;27.00;2.50
13198;DHT22;6664;52.514;13.440;2023-06-19T10:00:00;27.00;2.30
13198;DHT22;6664;52.514;13.440;2023-06-19T10:02:55;27.20;2.50
13198;DHT22;6664;52.514;13.440;2023-06-19T10:05:46;27.40;1.70
13198;DHT22;6664;52.514;13.440;2023-06-19T10:08:41;27.70;1.00
13198;DHT22;6664;52.514;13.440;2023-06-19T10:11:44;27.90;1.10
13198;DHT22;6664;52.514;13.440;2023-06-19T10:14:30;27.80;1.00
13198;DHT22;6664;52.514;13.440;2023-06-19T10:17:18;28.20;1.00
13198;DHT22;6664;52.514;13.440;2023-06-19T10:20:18;28.40;1.00
13198;DHT22;6664;52.514;13.440;2023-06-19T10:23:10;28.60;1.00
13198;DHT22;6664;52.514;13.440;2023-06-19T10:26:00;28.90;1.00
13198;DHT22;6664;52.514;13.440;2023-06-19T10:28:50;29.00;1.00
13198;DHT22;6664;52.514;13.440;2023-06-19T10:31:38;28.90;1.00
13198;DHT22;6664;52.514;13.440;2023-06-19T10:34:33;28.90;1.00
13198;DHT22;6664;52.514;13.440;2023-06-19T10:37:32;28.60;1.00
13198;DHT22;6664;52.514;13.440;2023-06-19T10:40:18;28.10;1.00
13198;DHT22;6664;52.514;13.440;2023-06-19T10:43:03;27.90;1.00
13198;DHT22;6664;52.514;13.440;2023-06-19T10:45:50;27.80;1.00
13198;DHT22;6664;52.514;13.440;2023-06-19T10:48:36;27.80;1.10
13198;DHT22;6664;52.514;13.440;2023-06-19T10:51:23;27.90;1.20
13198;DHT22;6664;52.514;13.440;2023-06-19T10:54:09;28.30;1.00
13198;DHT22;6664;52.514;13.440;2023-06-19T10:56:55;28.50;1.00
13198;DHT22;6664;52.514;13.440;2023-06-19T10:59:45;28.70;1.00
13198;DHT22;6664;52.514;13.440;2023-06-19T11:02:30;28.80;1.00
13198;DHT22;6664;52.514;13.440;2023-06-19T11:05:19;28.90;1.00
13198;DHT22;6664;52.514;13.440;2023-06-19T11:08:06;28.90;1.00
13198;DHT22;6664;52.514;13.440;2023-06-19T11:10:52;29.50;1.00
13198;DHT22;6664;52.514;13.440;2023-06-19T11:13:38;30.00;1.00
13198;DHT22;6664;52.514;13.440;2023-06-19T11:16:23;30.10;1.00
13198;DHT22;6664;52.514;13.440;2023-06-19T11:19:13;30.10;1.00
13198;DHT22;6664;52.514;13.440;2023-06-19T11:21:59;29.70;1.00
13198;DHT22;6664;52.514;13.440;2023-06-19T11:24:48;29.70;1.00
13198;DHT22;6664;52.514;13.440;2023-06-19T11:27:38;29.70;1.00
13198;DHT22;6664;52.514;13.440;2023-06-19T11:30:31;29.60;1.00
13198;DHT22;6664;52.514;13.440;2023-06-19T11:33:19;29.30;1.00
13198;DHT22;6664;52.514;13.440;2023-06-19T11:36:08;29.70;1.00
13198;DHT22;6664;52.514;13.440;2023-06-19T11:38:54;30.10;1.00
13198;DHT22;6664;52.514;13.440;2023-06-19T11:41:40;30.60;1.00
13198;DHT22;6664;52.514;13.440;2023-06-19T11:44:25;31.20;1.00
13198;DHT22;6664;52.514;13.440;2023-06-19T11:47:11;31.40;1.00
13198;DHT22;6664;52.514;13.440;2023-06-19T11:49:58;31.50;1.00
13198;DHT22;6664;52.514;13.440;2023-06-19T11:52:44;31.70;1.00
13198;DHT22;6664;52.514;13.440;2023-06-19T11:55:30;32.30;1.00
13198;DHT22;6664;52.514;13.440;2023-06-19T11:58:16;32.70;1.00
13198;DHT22;6664;52.514;13.440;2023-06-19T12:01:01;32.80;1.00
13198;DHT22;6664;52.514;13.440;2023-06-19T12:03:49;33.50;1.00
13198;DHT22;6664;52.514;13.440;2023-06-19T12:06:35;33.70;1.00
13198;DHT22;6664;52.514;13.440;2023-06-19T12:09:21;34.20;1.00
13198;DHT22;6664;52.514;13.440;2023-06-19T12:12:07;34.40;1.00
13198;DHT22;6664;52.514;13.440;2023-06-19T12:14:55;34.50;1.00
13198;DHT22;6664;52.514;13.440;2023-06-19T12:17:45;34.80;1.00
13198;DHT22;6664;52.514;13.440;2023-06-19T12:20:31;34.80;1.00
13198;DHT22;6664;52.514;13.440;2023-06-19T12:23:16;35.00;1.00
13198;DHT22;6664;52.514;13.440;2023-06-19T12:26:02;35.40;1.00
13198;DHT22;6664;52.514;13.440;2023-06-19T12:28:48;35.60;1.00
13198;DHT22;6664;52.514;13.440;2023-06-19T12:31:38;35.90;1.00
13198;DHT22;6664;52.514;13.440;2023-06-19T12:34:24;37.40;1.00
13198;DHT22;6664;52.514;13.440;2023-06-19T12:37:16;40.50;1.00
13198;DHT22;6664;52.514;13.440;2023-06-19T12:40:05;43.10;1.00
13198;DHT22;6664;52.514;13.440;2023-06-19T12:42:56;45.00;1.00
13198;DHT22;6664;52.514;13.440;2023-06-19T12:45:41;46.10;1.00
13198;DHT22;6664;52.514;13.440;2023-06-19T12:48:28;47.00;1.00
13198;DHT22;6664;52.514;13.440;2023-06-19T12:51:16;47.10;1.00
13198;DHT22;6664;52.514;13.440;2023-06-19T12:54:02;47.90;1.00
13198;DHT22;6664;52.514;13.440;2023-06-19T12:56:49;48.80;1.00
13198;DHT22;6664;52.514;13.440;2023-06-19T12:59:36;50.20;1.00
13198;DHT22;6664;52.514;13.440;2023-06-19T13:02:21;51.30;1.00
13198;DHT22;6664;52.514;13.440;2023-06-19T13:05:09;52.00;1.00
13198;DHT22;6664;52.514;13.440;2023-06-19T13:07:57;47.00;1.00
13198;DHT22;6664;52.514;13.440;2023-06-19T13:10:45;49.70;1.00
13198;DHT22;6664;52.514;13.440;2023-06-19T13:13:33;50.60;1.00
13198;DHT22;6664;52.514;13.440;2023-06-19T13:16:19;45.30;1.00
13198;DHT22;6664;52.514;13.440;2023-06-19T13:19:24;44.30;1.00
13198;DHT22;6664;52.514;13.440;2023-06-19T13:22:10;49.40;1.00
13198;DHT22;6664;52.514;13.440;2023-06-19T13:24:55;52.50;1.00
13198;DHT22;6664;52.514;13.440;2023-06-19T13:27:41;53.80;1.00
13198;DHT22;6664;52.514;13.440;2023-06-19T13:30:27;55.10;1.00
13198;DHT22;6664;52.514;13.440;2023-06-19T13:33:13;55.70;1.00
13198;DHT22;6664;52.514;13.440;2023-06-19T13:35:59;56.20;1.00
13198;DHT22;6664;52.514;13.440;2023-06-19T13:38:47;55.30;1.00
13198;DHT22;6664;52.514;13.440;2023-06-19T13:41:34;54.40;1.00
13198;DHT22;6664;52.514;13.440;2023-06-19T13:44:20;55.00;1.00
13198;DHT22;6664;52.514;13.440;2023-06-19T13:47:06;55.70;1.00
13198;DHT22;6664;52.514;13.440;2023-06-19T13:49:52;54.80;1.00
13198;DHT22;6664;52.514;13.440;2023-06-19T13:52:38;52.70;1.00
13198;DHT22;6664;52.514;13.440;2023-06-19T13:55:26;53.90;1.00
13198;DHT22;6664;52.514;13.440;2023-06-19T13:58:14;54.30;1.00
13198;DHT22;6664;52.514;13.440;2023-06-19T14:00:59;52.50;1.00
13198;DHT22;6664;52.514;13.440;2023-06-19T14:03:45;50.60;1.00
13198;DHT22;6664;52.514;13.440;2023-06-19T14:06:31;49.80;1.00
13198;DHT22;6664;52.514;13.440;2023-06-19T14:09:17;49.80;1.00
13198;DHT22;6664;52.514;13.440;2023-06-19T14:12:03;49.70;1.00
13198;DHT22;6664;52.514;13.440;2023-06-19T14:14:49;47.40;1.00
13198;DHT22;6664;52.514;13.440;2023-06-19T14:17:37;46.40;1.00
13198;DHT22;6664;52.514;13.440;2023-06-19T14:20:23;44.60;1.00
13198;DHT22;6664;52.514;13.440;2023-06-19T14:23:09;43.80;1.00
13198;DHT22;6664;52.514;13.440;2023-06-19T14:25:55;43.50;1.00
13198;DHT22;6664;52.514;13.440;2023-06-19T14:28:41;44.00;1.00
13198;DHT22;6664;52.514;13.440;2023-06-19T14:31:26;44.50;1.00
13198;DHT22;6664;52.514;13.440;2023-06-19T14:34:14;43.60;1.00
13198;DHT22;6664;52.514;13.440;2023-06-19T14:37:00;42.60;1.00
13198;DHT22;6664;52.514;13.440;2023-06-19T14:39:46;43.80;1.00
13198;DHT22;6664;52.514;13.440;2023-06-19T14:42:31;43.40;1.00
13198;DHT22;6664;52.514;13.440;2023-06-19T14:45:19;42.50;1.00
13198;DHT22;6664;52.514;13.440;2023-06-19T14:48:04;41.70;1.00
13198;DHT22;6664;52.514;13.440;2023-06-19T14:50:53;41.80;1.00
13198;DHT22;6664;52.514;13.440;2023-06-19T14:53:38;42.90;1.00
13198;DHT22;6664;52.514;13.440;2023-06-19T14:56:26;43.60;1.00
13198;DHT22;6664;52.514;13.440;2023-06-19T14:59:12;44.00;1.00
13198;DHT22;6664;52.514;13.440;2023-06-19T15:01:57;42.60;1.00
13198;DHT22;6664;52.514;13.440;2023-06-19T15:04:43;41.70;1.00
13198;DHT22;6664;52.514;13.440;2023-06-19T15:07:48;40.90;1.00
13198;DHT22;6664;52.514;13.440;2023-06-19T15:10:35;38.50;1.00
13198;DHT22;6664;52.514;13.440;2023-06-19T15:13:23;38.00;1.00
13198;DHT22;6664;52.514;13.440;2023-06-19T15:16:09;37.20;1.00
13198;DHT22;6664;52.514;13.440;2023-06-19T15:18:57;37.10;1.00
13198;DHT22;6664;52.514;13.440;2023-06-19T15:21:42;36.40;1.00
13198;DHT22;6664;52.514;13.440;2023-06-19T15:24:30;35.90;1.00
13198;DHT22;6664;52.514;13.440;2023-06-19T15:27:16;35.50;1.00
13198;DHT22;6664;52.514;13.440;2023-06-19T15:30:02;36.00;1.00
13198;DHT22;6664;52.514;13.440;2023-06-19T15:32:49;35.50;1.00
13198;DHT22;6664;52.514;13.440;2023-06-19T15:35:34;35.10;1.00
13198;DHT22;6664;52.514;13.440;2023-06-19T15:38:22;34.60;1.00
13198;DHT22;6664;52.514;13.440;2023-06-19T15:41:08;34.10;1.00
13198;DHT22;6664;52.514;13.440;2023-06-19T15:43:54;33.80;1.00
13198;DHT22;6664;52.514;13.440;2023-06-19T15:46:45;33.40;1.00
13198;DHT22;6664;52.514;13.440;2023-06-19T15:49:31;33.20;1.00
13198;DHT22;6664;52.514;13.440;2023-06-19T15:52:16;33.30;1.00
13198;DHT22;6664;52.514;13.440;2023-06-19T15:55:02;33.40;1.00
13198;DHT22;6664;52.514;13.440;2023-06-19T15:57:51;34.10;1.00
13198;DHT22;6664;52.514;13.440;2023-06-19T16:00:37;34.60;1.00
13198;DHT22;6664;52.514;13.440;2023-06-19T16:03:24;34.40;1.00
13198;DHT22;6664;52.514;13.440;2023-06-19T16:06:13;34.00;1.00
13198;DHT22;6664;52.514;13.440;2023-06-19T16:09:01;33.60;1.00
13198;DHT22;6664;52.514;13.440;2023-06-19T16:11:49;33.50;1.00
13198;DHT22;6664;52.514;13.440;2023-06-19T16:14:36;33.30;1.00
13198;DHT22;6664;52.514;13.440;2023-06-19T16:17:22;33.10;1.00
13198;DHT22;6664;52.514;13.440;2023-06-19T16:20:09;32.70;1.00
13198;DHT22;6664;52.514;13.440;2023-06-19T16:22:57;32.50;1.00
13198;DHT22;6664;52.514;13.440;2023-06-19T16:25:44;32.60;1.00
13198;DHT22;6664;52.514;13.440;2023-06-19T16:28:33;32.40;1.00
13198;DHT22;6664;52.514;13.440;2023-06-19T16:31:18;32.40;1.00
13198;DHT22;6664;52.514;13.440;2023-06-19T16:34:04;32.30;1.00
13198;DHT22;6664;52.514;13.440;2023-06-19T16:36:50;32.20;1.00
13198;DHT22;6664;52.514;13.440;2023-06-19T16:39:40;32.10;1.00
13198;DHT22;6664;52.514;13.440;2023-06-19T16:42:26;32.20;1.00
13198;DHT22;6664;52.514;13.440;2023-06-19T16:45:11;32.20;1.00
13198;DHT22;6664;52.514;13.440;2023-06-19T16:47:58;32.10;1.00
13198;DHT22;6664;52.514;13.440;2023-06-19T16:50:45;31.70;1.00
13198;DHT22;6664;52.514;13.440;2023-06-19T16:53:31;31.30;1.00
13198;DHT22;6664;52.514;13.440;2023-06-19T16:56:17;31.00;1.00
13198;DHT22;6664;52.514;13.440;2023-06-19T16:59:03;30.80;1.00
13198;DHT22;6664;52.514;13.440;2023-06-19T17:01:51;30.40;1.00
13198;DHT22;6664;52.514;13.440;2023-06-19T17:04:43;30.20;1.00
13198;DHT22;6664;52.514;13.440;2023-06-19T17:07:33;29.90;1.00
13198;DHT22;6664;52.514;13.440;2023-06-19T17:10:19;29.70;1.00
13198;DHT22;6664;52.514;13.440;2023-06-19T17:13:08;29.60;1.00
13198;DHT22;6664;52.514;13.440;2023-06-19T17:15:54;29.40;1.00
13198;DHT22;6664;52.514;13.440;2023-06-19T17:18:40;29.20;1.00
13198;DHT22;6664;52.514;13.440;2023-06-19T17:21:25;29.30;1.00
13198;DHT22;6664;52.514;13.440;2023-06-19T17:24:15;29.20;1.00
13198;DHT22;6664;52.514;13.440;2023-06-19T17:27:05;29.40;1.00
13198;DHT22;6664;52.514;13.440;2023-06-19T17:29:51;29.20;1.00
13198;DHT22;6664;52.514;13.440;2023-06-19T17:32:40;29.00;1.00
13198;DHT22;6664;52.514;13.440;2023-06-19T17:35:25;28.80;1.00
13198;DHT22;6664;52.514;13.440;2023-06-19T17:38:13;28.60;1.00
13198;DHT22;6664;52.514;13.440;2023-06-19T17:40:59;28.40;1.00
13198;DHT22;6664;52.514;13.440;2023-06-19T17:43:46;28.30;1.00
13198;DHT22;6664;52.514;13.440;2023-06-19T17:46:34;28.20;1.00
13198;DHT22;6664;52.514;13.440;2023-06-19T17:49:19;28.00;1.00
13198;DHT22;6664;52.514;13.440;2023-06-19T17:52:07;27.90;1.00